Time;durP1;ratioP1;P1;durP2;ratioP2;P2;SDS_P1;SDS_P2;PMS_P1;PMS_P2;Temp;Humidity;BMP_temperature;BMP_pressure;BME280_temperature;BME280_humidity;BME280_pressure;Samples;Min_cycle;Max_cycle;Signal;HPM_P1;HPM_P2
2023/07/07 00:02:33;;;;;;;6.35;2.80;;;;;13.90;94480.00;;;;7399533;19;20175;-76
2023/07/07 00:05:09;;;;;;;4.32;2.20;;;;;13.90;94470.00;;;;7396600;19;20129;-77
2023/07/07 00:07:38;;;;;;;4.28;2.60;;;;;13.90;94468.00;;;;7401782;19;20161;-79
2023/07/07 00:10:14;;;;;;;5.57;3.00;;;;;13.90;94470.00;;;;7400757;19;20472;-76
2023/07/07 00:12:49;;;;;;;5.32;2.60;;;;;14.00;94467.00;;;;7400355;19;20177;-78
2023/07/07 00:15:17;;;;;;;4.45;2.60;;;;;14.10;94464.00;;;;7395121;19;20145;-77
2023/07/07 00:17:52;;;;;;;6.30;2.80;;;;;14.20;94468.00;;;;7400339;19;20136;-76
2023/07/07 00:20:21;;;;;;;3.33;2.25;;;;;14.30;94474.00;;;;7399455;19;20184;-77
2023/07/07 00:22:58;;;;;;;5.00;2.75;;;;;14.30;94472.00;;;;7400162;19;20125;-76
2023/07/07 00:25:33;;;;;;;5.80;2.53;;;;;14.10;94467.00;;;;7398622;19;20148;-76
2023/07/07 00:28:10;;;;;;;5.35;2.80;;;;;13.90;94463.00;;;;7399375;19;20139;-80
2023/07/07 00:38:11;;;;;;;3.92;2.42;;;;;14.00;94465.00;;;;7387667;19;20145;-77
2023/07/07 00:40:46;;;;;;;5.65;2.40;;;;;14.10;94456.00;;;;7397246;19;20136;-77
2023/07/07 00:43:16;;;;;;;3.53;2.45;;;;;14.10;94462.00;;;;7399470;19;20156;-77
2023/07/07 00:45:53;;;;;;;8.90;2.58;;;;;14.00;94454.00;;;;7399751;19;20600;-78
2023/07/07 00:48:41;;;;;;;6.90;2.45;;;;;14.00;94457.00;;;;7397549;19;20620;-77
2023/07/07 00:51:22;;;;;;;10.02;2.70;;;;;13.90;94468.00;;;;7399570;19;20612;-77
2023/07/07 00:53:54;;;;;;;3.90;2.50;;;;;13.80;94465.00;;;;7395980;19;20144;-76
2023/07/07 00:56:41;;;;;;;6.68;3.08;;;;;13.70;94462.00;;;;7398852;19;20604;-78
2023/07/07 00:59:28;;;;;;;3.58;2.30;;;;;13.50;94468.00;;;;7395963;19;20212;-77
2023/07/07 01:02:26;;;;;;;4.82;2.70;;;;;13.50;94469.00;;;;7398329;19;20145;-79
2023/07/07 01:05:07;;;;;;;5.38;2.50;;;;;13.50;94464.00;;;;7393211;19;20125;-75
2023/07/07 01:07:45;;;;;;;3.72;2.58;;;;;13.50;94470.00;;;;7399527;19;20172;-76
2023/07/07 01:10:13;;;;;;;8.45;2.45;;;;;13.70;94469.00;;;;7397547;19;20145;-76
2023/07/07 01:12:51;;;;;;;3.95;2.55;;;;;13.80;94467.00;;;;7398804;19;20144;-75
2023/07/07 01:15:30;;;;;;;4.20;2.45;;;;;13.90;94471.00;;;;7394874;19;20149;-75
2023/07/07 01:18:19;;;;;;;5.45;2.28;;;;;14.00;94467.00;;;;7397427;19;20137;-78
2023/07/07 01:21:09;;;;;;;5.38;2.60;;;;;14.00;94474.00;;;;7397038;19;20625;-77
2023/07/07 01:24:18;;;;;;;3.72;2.50;;;;;13.80;94482.00;;;;7398547;19;20597;-77
2023/07/07 01:27:12;;;;;;;4.93;2.47;;;;;13.80;94473.00;;;;7398287;19;20232;-77
2023/07/07 01:30:23;;;;;;;5.15;2.67;;;;;13.70;94476.00;;;;7397738;19;20167;-76
2023/07/07 01:33:04;;;;;;;4.30;2.38;;;;;13.80;94472.00;;;;7396938;19;20132;-75
2023/07/07 01:35:32;;;;;;;8.02;2.35;;;;;14.10;94467.00;;;;7394935;19;20182;-76
2023/07/07 01:38:27;;;;;;;4.85;2.47;;;;;14.10;94466.00;;;;7398887;19;20140;-77
2023/07/07 01:41:16;;;;;;;3.42;2.50;;;;;14.10;94463.00;;;;7397535;19;20237;-77
2023/07/07 01:44:14;;;;;;;5.03;2.60;;;;;14.20;94457.00;;;;7402225;19;20718;-78
2023/07/07 01:47:08;;;;;;;4.15;2.50;;;;;14.40;94459.00;;;;7393280;19;20265;-76
2023/07/07 01:49:54;;;;;;;5.32;2.70;;;;;14.10;94459.00;;;;7396278;19;20163;-76
2023/07/07 01:52:23;;;;;;;5.13;2.53;;;;;14.10;94457.00;;;;7394317;19;20596;-77
2023/07/07 01:55:06;;;;;;;3.47;2.42;;;;;14.10;94463.00;;;;7393163;19;20156;-75
2023/07/07 01:57:44;;;;;;;3.38;2.40;;;;;14.30;94453.00;;;;7397474;19;20132;-77
2023/07/07 02:00:19;;;;;;;4.50;2.65;;;;;14.50;94457.00;;;;7395048;19;20177;-75
2023/07/07 02:03:07;;;;;;;4.03;2.38;;;;;14.70;94443.00;;;;7394606;19;20148;-77
2023/07/07 02:05:36;;;;;;;5.25;2.75;;;;;14.40;94450.00;;;;7392678;19;20236;-77
2023/07/07 02:08:12;;;;;;;3.17;2.50;;;;;14.10;94454.00;;;;7396915;19;20501;-75
2023/07/07 02:10:48;;;;;;;3.75;2.40;;;;;14.10;94452.00;;;;7396440;19;20133;-77
2023/07/07 02:13:24;;;;;;;3.22;2.28;;;;;13.90;94455.00;;;;7394231;19;20177;-78
2023/07/07 02:15:51;;;;;;;3.63;2.47;;;;;14.10;94452.00;;;;7392041;19;20208;-77
2023/07/07 02:18:27;;;;;;;5.80;2.42;;;;;13.90;94453.00;;;;7395059;19;20487;-77
2023/07/07 02:20:55;;;;;;;3.20;2.53;;;;;14.00;94444.00;;;;7393726;19;20251;-81
2023/07/07 02:23:30;;;;;;;5.88;2.60;;;;;14.10;94452.00;;;;7394936;19;20180;-78
2023/07/07 02:26:09;;;;;;;4.07;2.33;;;;;13.90;94447.00;;;;7395018;19;20157;-76
2023/07/07 02:28:43;;;;;;;2.53;2.22;;;;;13.90;94453.00;;;;7394559;19;20773;-77
2023/07/07 02:31:12;;;;;;;5.88;2.67;;;;;13.70;94463.00;;;;7393659;19;20187;-78
2023/07/07 02:33:47;;;;;;;4.57;2.67;;;;;13.80;94446.00;;;;7393085;19;20128;-80
2023/07/07 02:36:15;;;;;;;3.85;2.33;;;;;13.70;94450.00;;;;7395089;19;20204;-77
2023/07/07 02:38:49;;;;;;;5.53;2.85;;;;;13.50;94456.00;;;;7395639;19;20145;-76
2023/07/07 02:41:16;;;;;;;3.40;2.72;;;;;13.30;94450.00;;;;7391989;19;20230;-77
2023/07/07 02:43:51;;;;;;;7.10;3.03;;;;;13.20;94456.00;;;;7394648;19;20543;-76
2023/07/07 02:46:21;;;;;;;2.63;2.42;;;;;13.30;94456.00;;;;7394323;19;20149;-77
2023/07/07 02:48:56;;;;;;;3.90;2.58;;;;;13.30;94466.00;;;;7390688;19;20152;-79
2023/07/07 02:51:27;;;;;;;3.72;2.30;;;;;13.50;94463.00;;;;7395116;19;20158;-78
2023/07/07 02:54:02;;;;;;;4.80;2.67;;;;;13.50;94459.00;;;;7392553;19;20149;-75
2023/07/07 02:56:30;;;;;;;4.40;2.42;;;;;13.60;94447.00;;;;7391480;19;20147;-77
2023/07/07 02:59:05;;;;;;;4.35;2.60;;;;;13.60;94456.00;;;;7392381;19;20148;-78
2023/07/07 03:01:44;;;;;;;3.88;2.45;;;;;13.50;94453.00;;;;7392026;19;20144;-78
2023/07/07 03:04:24;;;;;;;3.38;2.22;;;;;13.50;94460.00;;;;7389775;19;20182;-75
2023/07/07 03:06:59;;;;;;;3.90;2.58;;;;;13.50;94451.00;;;;7392875;19;20232;-76
2023/07/07 03:09:35;;;;;;;4.55;2.40;;;;;13.50;94450.00;;;;7395173;19;20132;-78
2023/07/07 03:12:09;;;;;;;6.53;2.55;;;;;13.60;94443.00;;;;7394184;19;20141;-77
2023/07/07 03:14:43;;;;;;;4.90;2.17;;;;;13.60;94443.00;;;;7391441;19;20516;-79
2023/07/07 03:17:18;;;;;;;3.28;2.60;;;;;13.50;94453.00;;;;7392850;19;20212;-78
2023/07/07 03:19:45;;;;;;;6.20;2.28;;;;;13.40;94459.00;;;;7400090;19;20539;-78
2023/07/07 03:22:20;;;;;;;6.75;2.90;;;;;13.30;94461.00;;;;7399932;19;20162;-78
2023/07/07 03:24:51;;;;;;;4.25;2.83;;;;;13.30;94449.00;;;;7399263;19;20208;-79
2023/07/07 03:27:25;;;;;;;5.68;2.80;;;;;13.20;94451.00;;;;7399494;19;20462;-78
2023/07/07 03:29:59;;;;;;;5.35;2.63;;;;;13.20;94461.00;;;;7401906;19;20133;-76
2023/07/07 03:32:29;;;;;;;3.45;2.38;;;;;13.30;94458.00;;;;7399600;19;20141;-79
2023/07/07 03:35:05;;;;;;;5.18;3.88;;;;;13.30;94463.00;;;;7396928;19;20152;-79
2023/07/07 03:37:39;;;;;;;4.10;3.40;;;;;13.40;94460.00;;;;7399536;19;20124;-78
2023/07/07 03:40:16;;;;;;;4.47;2.60;;;;;13.50;94458.00;;;;7400574;19;20161;-77
2023/07/07 03:42:48;;;;;;;5.35;2.70;;;;;13.40;94464.00;;;;7399789;19;20136;-78
2023/07/07 03:45:25;;;;;;;5.47;2.78;;;;;13.40;94470.00;;;;7397770;19;20158;-77
2023/07/07 03:48:07;;;;;;;5.35;2.72;;;;;13.30;94472.00;;;;7400652;19;20570;-79
2023/07/07 03:50:34;;;;;;;4.18;2.70;;;;;13.30;94466.00;;;;7399176;19;20163;-75
2023/07/07 03:53:10;;;;;;;3.85;2.60;;;;;13.20;94463.00;;;;7400465;19;20143;-79
2023/07/07 03:55:46;;;;;;;4.70;2.20;;;;;13.20;94464.00;;;;7396493;19;20200;-80
2023/07/07 03:58:26;;;;;;;2.95;2.38;;;;;13.40;94466.00;;;;7399383;19;20600;-80
2023/07/07 04:01:07;;;;;;;4.70;2.55;;;;;13.40;94475.00;;;;7398072;19;20141;-78
2023/07/07 04:03:48;;;;;;;3.35;2.40;;;;;13.40;94471.00;;;;7396379;19;20176;-78
2023/07/07 04:06:33;;;;;;;6.45;2.55;;;;;13.40;94472.00;;;;7400805;19;20162;-76
2023/07/07 04:09:00;;;;;;;6.30;2.58;;;;;13.50;94463.00;;;;7399002;19;20149;-79
2023/07/07 04:11:37;;;;;;;5.35;2.78;;;;;13.40;94469.00;;;;7398439;19;20158;-77
2023/07/07 04:14:08;;;;;;;4.65;2.90;;;;;13.30;94471.00;;;;7398275;19;20140;-77
2023/07/07 04:16:48;;;;;;;3.95;2.65;;;;;13.40;94477.00;;;;7396796;19;20188;-78
2023/07/07 04:19:16;;;;;;;3.80;2.70;;;;;13.60;94474.00;;;;7401692;19;20140;-78
2023/07/07 04:21:50;;;;;;;5.70;2.97;;;;;13.80;94468.00;;;;7397976;19;20137;-79
2023/07/07 04:24:25;;;;;;;5.82;2.95;;;;;14.00;94479.00;;;;7398393;19;20588;-77
2023/07/07 04:27:00;;;;;;;5.57;3.03;;;;;14.10;94476.00;;;;7401355;19;20472;-76
2023/07/07 04:29:32;;;;;;;4.70;2.78;;;;;14.20;94473.00;;;;7397221;19;20149;-76
2023/07/07 04:32:12;;;;;;;4.13;2.50;;;;;14.20;94480.00;;;;7398257;19;20159;-75
2023/07/07 04:34:40;;;;;;;2.90;2.30;;;;;14.10;94472.00;;;;7396755;19;20153;-79
2023/07/07 04:37:14;;;;;;;4.43;2.60;;;;;14.10;94478.00;;;;7399184;19;20834;-79
2023/07/07 04:39:52;;;;;;;3.42;2.65;;;;;14.20;94480.00;;;;7397405;19;20164;-78
2023/07/07 04:42:26;;;;;;;3.67;2.60;;;;;14.30;94487.00;;;;7399877;19;20461;-80
2023/07/07 04:44:58;;;;;;;3.95;2.70;;;;;14.40;94475.00;;;;7397521;19;20292;-79
2023/07/07 04:47:36;;;;;;;4.03;2.90;;;;;14.60;94481.00;;;;7399724;19;20467;-79
2023/07/07 04:50:18;;;;;;;6.05;2.92;;;;;14.90;94476.00;;;;7397061;19;20132;-79
2023/07/07 04:52:53;;;;;;;4.28;2.75;;;;;15.10;94476.00;;;;7398687;19;20239;-80
2023/07/07 04:55:21;;;;;;;6.78;2.50;;;;;15.30;94481.00;;;;7396416;19;21809;-80
2023/07/07 04:57:56;;;;;;;4.20;2.60;;;;;15.40;94481.00;;;;7395099;19;20162;-79
2023/07/07 05:00:33;;;;;;;4.85;2.97;;;;;15.50;94486.00;;;;7397686;19;20132;-78
2023/07/07 05:03:15;;;;;;;5.20;2.80;;;;;15.70;94481.00;;;;7398035;19;20219;-80
2023/07/07 05:05:43;;;;;;;3.03;2.42;;;;;15.90;94485.00;;;;7400452;19;20140;-79
2023/07/07 05:08:17;;;;;;;4.47;2.85;;;;;16.20;94482.00;;;;7401530;19;20139;-80
2023/07/07 05:10:48;;;;;;;4.72;2.88;;;;;16.40;94485.00;;;;7403309;19;20141;-82
2023/07/07 05:13:35;;;;;;;2.80;2.40;;;;;16.60;94480.00;;;;7398374;19;20125;-79
2023/07/07 05:16:07;;;;;;;5.47;2.97;;;;;16.80;94485.00;;;;7395203;19;20156;-78
2023/07/07 05:18:42;;;;;;;4.22;2.97;;;;;16.90;94490.00;;;;7399630;19;20193;-82
2023/07/07 05:21:20;;;;;;;4.18;2.70;;;;;17.20;94491.00;;;;7404532;19;20140;-81
2023/07/07 05:23:53;;;;;;;5.00;3.03;;;;;17.30;94482.00;;;;7400206;19;20560;-80
2023/07/07 05:26:38;;;;;;;4.78;2.70;;;;;17.50;94480.00;;;;7397960;19;20136;-80
2023/07/07 05:29:16;;;;;;;5.53;3.15;;;;;17.70;94479.00;;;;7402333;19;20154;-80
2023/07/07 05:31:51;;;;;;;3.72;2.90;;;;;17.80;94477.00;;;;7397461;19;20461;-78
2023/07/07 05:34:21;;;;;;;5.40;2.90;;;;;18.00;94481.00;;;;7397596;19;20151;-78
2023/07/07 05:36:57;;;;;;;6.20;2.70;;;;;18.20;94490.00;;;;7397245;19;20227;-79
2023/07/07 05:39:25;;;;;;;10.70;3.25;;;;;18.20;94480.00;;;;7397921;19;20468;-79
2023/07/07 05:41:59;;;;;;;4.82;3.33;;;;;18.30;94479.00;;;;7395030;19;20633;-81
2023/07/07 05:44:35;;;;;;;4.82;3.30;;;;;18.50;94482.00;;;;7397555;19;20124;-78
2023/07/07 05:47:10;;;;;;;4.13;3.15;;;;;18.60;94481.00;;;;7396812;19;20589;-80
2023/07/07 05:49:56;;;;;;;5.38;3.30;;;;;18.80;94499.00;;;;7394241;19;20140;-78
2023/07/07 05:52:34;;;;;;;3.78;3.08;;;;;19.00;94494.00;;;;7393700;19;20690;-77
2023/07/07 05:55:25;;;;;;;4.22;3.17;;;;;19.10;94492.00;;;;7397223;19;20520;-77
2023/07/07 05:57:53;;;;;;;5.18;3.40;;;;;19.30;94494.00;;;;7397301;19;20140;-79
2023/07/07 06:00:33;;;;;;;4.32;3.15;;;;;19.40;94492.00;;;;7393754;19;20148;-77
2023/07/07 06:03:33;;;;;;;6.38;3.70;;;;;19.70;94489.00;;;;7392162;19;20177;-77
2023/07/07 06:06:10;;;;;;;4.88;3.45;;;;;19.70;94491.00;;;;7396296;19;20605;-78
2023/07/07 06:08:39;;;;;;;7.78;3.90;;;;;19.90;94501.00;;;;7396278;19;20495;-78
2023/07/07 06:11:10;;;;;;;4.25;3.20;;;;;20.00;94496.00;;;;7392798;19;20608;-78
2023/07/07 06:13:45;;;;;;;5.18;3.63;;;;;20.30;94503.00;;;;7396750;19;20592;-79
2023/07/07 06:16:20;;;;;;;5.50;3.60;;;;;20.50;94501.00;;;;7396601;19;20144;-78
2023/07/07 06:19:01;;;;;;;7.00;3.67;;;;;20.90;94504.00;;;;7398010;19;20147;-79
2023/07/07 06:21:37;;;;;;;6.00;3.80;;;;;21.10;94514.00;;;;7395504;19;20607;-77
2023/07/07 06:24:12;;;;;;;6.15;3.60;;;;;21.10;94503.00;;;;7392413;19;20148;-79
2023/07/07 06:26:41;;;;;;;7.20;3.70;;;;;21.40;94510.00;;;;7393639;19;20148;-76
2023/07/07 06:29:20;;;;;;;4.07;3.53;;;;;21.60;94509.00;;;;7396305;19;20587;-77
2023/07/07 06:31:49;;;;;;;5.88;3.85;;;;;21.70;94517.00;;;;7393478;19;20129;-76
2023/07/07 06:34:25;;;;;;;5.55;3.90;;;;;22.00;94516.00;;;;7391463;19;20163;-77
2023/07/07 06:36:53;;;;;;;4.47;3.58;;;;;22.10;94522.00;;;;7394394;19;20660;-77
2023/07/07 06:39:22;;;;;;;7.18;3.38;;;;;22.10;94525.00;;;;7390909;19;20144;-76
2023/07/07 06:41:58;;;;;;;4.68;3.50;;;;;22.30;94527.00;;;;7394485;19;20142;-76
2023/07/07 06:44:37;;;;;;;8.63;4.00;;;;;22.50;94525.00;;;;7395154;19;20628;-79
2023/07/07 06:47:15;;;;;;;5.18;3.78;;;;;22.40;94527.00;;;;7395890;19;20135;-75
2023/07/07 06:49:46;;;;;;;6.78;3.20;;;;;22.70;94535.00;;;;7391854;19;20153;-76
2023/07/07 06:52:25;;;;;;;5.72;3.67;;;;;22.70;94535.00;;;;7395760;19;20601;-76
2023/07/07 06:54:55;;;;;;;5.28;3.42;;;;;22.60;94534.00;;;;7401784;19;20900;-78
2023/07/07 06:57:29;;;;;;;4.32;3.60;;;;;22.70;94543.00;;;;7401062;19;20157;-77
2023/07/07 06:59:57;;;;;;;5.43;3.83;;;;;22.70;94549.00;;;;7400849;19;20152;-77
2023/07/07 07:02:47;;;;;;;7.05;3.60;;;;;22.60;94547.00;;;;7398364;19;20188;-77
2023/07/07 07:05:24;;;;;;;5.72;4.30;;;;;22.50;94547.00;;;;7402177;19;20141;-78
2023/07/07 07:07:54;;;;;;;4.97;3.60;;;;;22.50;94555.00;;;;7400961;19;20159;-79
2023/07/07 07:10:28;;;;;;;5.07;4.00;;;;;22.60;94552.00;;;;7398917;19;20128;-78
2023/07/07 07:13:04;;;;;;;7.15;4.07;;;;;22.70;94545.00;;;;7401925;19;20145;-77
2023/07/07 07:15:39;;;;;;;7.32;4.38;;;;;22.60;94548.00;;;;7401314;19;20196;-79
2023/07/07 07:18:10;;;;;;;7.15;3.85;;;;;22.70;94554.00;;;;7397350;19;20156;-79
2023/07/07 07:20:54;;;;;;;5.10;4.20;;;;;22.90;94541.00;;;;7401374;19;20152;-78
2023/07/07 07:23:39;;;;;;;4.47;4.07;;;;;22.90;94546.00;;;;7400468;19;20145;-80
2023/07/07 07:26:14;;;;;;;6.03;3.90;;;;;23.40;94543.00;;;;7401264;19;20170;-78
2023/07/07 07:28:51;;;;;;;6.82;4.38;;;;;23.50;94543.00;;;;7397301;19;20155;-79
2023/07/07 07:31:26;;;;;;;5.35;4.38;;;;;23.60;94538.00;;;;7400248;19;20148;-77
2023/07/07 07:34:24;;;;;;;6.05;4.00;;;;;23.60;94539.00;;;;7399767;19;20187;-79
2023/07/07 07:37:08;;;;;;;5.10;4.40;;;;;23.60;94544.00;;;;7396859;19;20135;-76
2023/07/07 07:39:36;;;;;;;9.10;4.60;;;;;23.80;94543.00;;;;7400101;19;20148;-75
2023/07/07 07:42:11;;;;;;;6.85;4.03;;;;;23.70;94548.00;;;;7397846;19;21400;-77
2023/07/07 07:44:45;;;;;;;15.65;4.70;;;;;23.80;94543.00;;;;7399969;19;20127;-77
2023/07/07 07:47:20;;;;;;;5.95;4.75;;;;;23.90;94553.00;;;;7399615;19;20170;-76
2023/07/07 07:49:57;;;;;;;8.85;5.13;;;;;24.10;94546.00;;;;7398923;19;20152;-76
2023/07/07 07:52:25;;;;;;;5.90;4.35;;;;;24.00;94550.00;;;;7396789;19;20157;-78
2023/07/07 07:54:59;;;;;;;5.32;4.40;;;;;24.30;94553.00;;;;7401695;19;20628;-78
2023/07/07 07:57:32;;;;;;;6.05;4.57;;;;;24.20;94554.00;;;;7401773;19;20133;-78
2023/07/07 08:00:09;;;;;;;7.00;4.78;;;;;24.40;94549.00;;;;7401065;19;20596;-80
2023/07/07 08:02:40;;;;;;;6.35;4.45;;;;;24.20;94556.00;;;;7396936;19;20176;-78
2023/07/07 08:05:23;;;;;;;5.35;4.40;;;;;24.30;94557.00;;;;7400187;19;20139;-78
2023/07/07 08:07:59;;;;;;;5.78;4.25;;;;;24.50;94554.00;;;;7399486;19;20483;-79
2023/07/07 08:10:34;;;;;;;7.18;4.43;;;;;24.60;94559.00;;;;7400195;19;20156;-78
2023/07/07 08:13:02;;;;;;;7.47;4.38;;;;;24.60;94563.00;;;;7398654;19;20160;-82
2023/07/07 08:15:39;;;;;;;4.60;4.10;;;;;24.80;94558.00;;;;7381947;19;20140;-77
2023/07/07 08:18:07;;;;;;;5.68;4.35;;;;;24.40;94557.00;;;;7381207;19;20204;-77
2023/07/07 08:20:42;;;;;;;5.55;4.43;;;;;24.50;94554.00;;;;7385556;19;20173;-79
2023/07/07 08:23:10;;;;;;;8.05;4.28;;;;;24.80;94555.00;;;;7387049;19;20148;-77
2023/07/07 08:25:46;;;;;;;6.20;4.65;;;;;25.00;94565.00;;;;7387201;19;20157;-75
2023/07/07 08:28:23;;;;;;;8.98;4.70;;;;;25.20;94556.00;;;;7383005;19;20169;-78
2023/07/07 08:31:02;;;;;;;5.82;4.53;;;;;25.00;94554.00;;;;7385602;19;20154;-76
2023/07/07 08:33:30;;;;;;;6.05;4.65;;;;;25.00;94555.00;;;;7386220;19;20609;-77
2023/07/07 08:36:14;;;;;;;5.60;4.55;;;;;25.30;94559.00;;;;7389031;19;20145;-78
2023/07/07 08:38:41;;;;;;;5.53;4.47;;;;;25.30;94557.00;;;;7386047;19;20515;-77
2023/07/07 08:41:17;;;;;;;4.80;4.15;;;;;25.30;94563.00;;;;7386238;19;20141;-77
2023/07/07 08:43:45;;;;;;;7.70;4.57;;;;;25.20;94555.00;;;;7388266;19;20908;-79
2023/07/07 08:46:31;;;;;;;5.72;4.75;;;;;25.60;94568.00;;;;7385386;19;20136;-77
2023/07/07 08:49:16;;;;;;;5.45;4.53;;;;;25.60;94566.00;;;;7386854;19;20154;-76
2023/07/07 08:52:19;;;;;;;6.45;4.72;;;;;25.50;94560.00;;;;7385574;19;20601;-78
2023/07/07 08:55:23;;;;;;;6.13;4.70;;;;;25.70;94565.00;;;;7384073;19;20151;-79
2023/07/07 08:58:26;;;;;;;6.10;4.53;;;;;25.90;94565.00;;;;7386985;19;20207;-78
2023/07/07 09:01:29;;;;;;;7.30;5.40;;;;;26.00;94559.00;;;;7385470;19;20172;-78
2023/07/07 09:04:47;;;;;;;6.90;4.70;;;;;25.80;94557.00;;;;7382636;19;20222;-78
2023/07/07 09:07:23;;;;;;;6.60;5.00;;;;;26.00;94555.00;;;;7387622;19;20136;-77
2023/07/07 09:10:51;;;;;;;7.20;4.97;;;;;26.30;94549.00;;;;7384422;19;20177;-79
2023/07/07 09:13:27;;;;;;;6.93;5.55;;;;;26.60;94552.00;;;;7384170;19;20624;-79
2023/07/07 09:16:17;;;;;;;6.57;5.60;;;;;26.40;94558.00;;;;7385211;19;20196;-76
2023/07/07 09:19:27;;;;;;;6.75;5.30;;;;;26.70;94552.00;;;;7387422;19;20156;-77
2023/07/07 09:22:21;;;;;;;8.63;5.28;;;;;26.80;94553.00;;;;7384525;19;20144;-76
2023/07/07 09:25:49;;;;;;;7.68;5.53;;;;;27.10;94548.00;;;;7388614;19;20228;-78
2023/07/07 09:28:18;;;;;;;6.35;4.97;;;;;27.30;94557.00;;;;7385049;19;20495;-76
2023/07/07 09:31:22;;;;;;;7.00;5.50;;;;;27.60;94545.00;;;;7387139;19;20124;-76
2023/07/07 09:33:51;;;;;;;7.60;6.13;;;;;27.90;94551.00;;;;7390253;19;20161;-76
2023/07/07 09:36:33;;;;;;;6.07;5.38;;;;;27.70;94541.00;;;;7387588;19;20154;-77
2023/07/07 09:39:40;;;;;;;8.18;5.70;;;;;28.00;94553.00;;;;7387075;19;20148;-78
2023/07/07 09:42:51;;;;;;;6.93;5.88;;;;;27.90;94547.00;;;;7388544;19;20124;-77
2023/07/07 09:46:06;;;;;;;7.03;5.88;;;;;27.60;94542.00;;;;7388776;19;20596;-78
2023/07/07 09:49:00;;;;;;;8.40;6.30;;;;;28.00;94539.00;;;;7386572;19;20154;-77
2023/07/07 09:51:50;;;;;;;7.25;5.90;;;;;28.20;94542.00;;;;7388214;19;20132;-79
2023/07/07 09:54:27;;;;;;;6.72;4.82;;;;;28.70;94542.00;;;;7387929;19;20202;-75
2023/07/07 09:56:58;;;;;;;6.82;5.93;;;;;29.00;94544.00;;;;7388749;19;20772;-78
2023/07/07 09:59:39;;;;;;;9.30;7.22;;;;;28.60;94540.00;;;;7388202;19;20155;-76
2023/07/07 10:02:17;;;;;;;9.52;6.53;;;;;28.00;94539.00;;;;7387332;19;20177;-77
2023/07/07 10:05:05;;;;;;;7.85;5.88;;;;;28.40;94550.00;;;;7387519;19;20155;-77
2023/07/07 10:07:43;;;;;;;10.23;6.68;;;;;28.60;94544.00;;;;7384997;19;20633;-76
2023/07/07 10:10:18;;;;;;;9.38;7.25;;;;;29.00;94549.00;;;;7382802;19;20208;-78
2023/07/07 10:12:54;;;;;;;10.88;6.60;;;;;29.10;94534.00;;;;7389117;19;20139;-78
2023/07/07 10:15:38;;;;;;;8.77;6.53;;;;;29.00;94541.00;;;;7385586;19;20152;-80
2023/07/07 10:18:32;;;;;;;7.35;6.53;;;;;28.90;94534.00;;;;7384876;19;20148;-80
2023/07/07 10:21:23;;;;;;;7.68;6.70;;;;;29.50;94539.00;;;;7383603;19;20565;-78
2023/07/07 10:23:59;;;;;;;13.23;6.88;;;;;29.20;94546.00;;;;7387780;19;20741;-77
2023/07/07 10:26:32;;;;;;;10.15;7.35;;;;;29.20;94542.00;;;;7382902;19;20496;-78
2023/07/07 10:29:12;;;;;;;8.98;7.18;;;;;29.00;94542.00;;;;7392554;19;20147;-78
2023/07/07 10:31:48;;;;;;;8.05;6.80;;;;;29.10;94540.00;;;;7397387;19;20581;-78
2023/07/07 10:34:36;;;;;;;8.57;6.95;;;;;29.50;94537.00;;;;7392335;19;20173;-79
2023/07/07 10:37:18;;;;;;;9.13;7.32;;;;;29.80;94533.00;;;;7391296;19;20207;-78
2023/07/07 10:39:54;;;;;;;9.20;7.40;;;;;30.30;94541.00;;;;7393813;19;20592;-79
2023/07/07 10:42:25;;;;;;;10.30;7.43;;;;;29.80;94537.00;;;;7393006;19;20680;-79
2023/07/07 10:45:02;;;;;;;13.32;7.60;;;;;29.60;94549.00;;;;7391957;19;20158;-78
2023/07/07 10:47:33;;;;;;;10.35;7.07;;;;;30.00;94547.00;;;;7391241;19;20128;-79
2023/07/07 10:50:17;;;;;;;8.48;6.90;;;;;30.10;94543.00;;;;7391395;19;20152;-80
2023/07/07 10:53:16;;;;;;;8.73;7.82;;;;;30.30;94546.00;;;;7394461;19;20140;-79
2023/07/07 10:56:11;;;;;;;12.75;8.02;;;;;30.20;94541.00;;;;7392916;19;20231;-75
2023/07/07 10:58:59;;;;;;;11.23;8.02;;;;;29.80;94545.00;;;;7389512;19;20148;-79
2023/07/07 11:01:41;;;;;;;11.65;9.40;;;;;29.50;94551.00;;;;7389472;19;20178;-77
2023/07/07 11:04:42;;;;;;;14.60;9.93;;;;;29.90;94552.00;;;;7392008;19;20176;-79
2023/07/07 11:07:43;;;;;;;12.30;9.05;;;;;30.60;94544.00;;;;7389076;19;20593;-79
2023/07/07 11:10:26;;;;;;;15.63;8.70;;;;;30.80;94546.00;;;;7389278;19;20191;-80
2023/07/07 11:13:17;;;;;;;8.63;7.63;;;;;31.00;94545.00;;;;7381613;19;20169;-80
2023/07/07 11:16:07;;;;;;;10.07;8.00;;;;;30.50;94538.00;;;;7384379;19;20452;-81
2023/07/07 11:18:50;;;;;;;11.50;7.68;;;;;31.30;94542.00;;;;7385085;19;20125;-79
2023/07/07 11:21:40;;;;;;;10.52;7.63;;;;;31.40;94534.00;;;;7384227;19;20616;-80
2023/07/07 11:24:36;;;;;;;10.25;8.00;;;;;31.50;94541.00;;;;7379614;19;20166;-78
2023/07/07 11:27:49;;;;;;;9.45;7.82;;;;;31.60;94533.00;;;;7381166;19;20200;-79
2023/07/07 11:30:35;;;;;;;9.65;7.38;;;;;32.10;94531.00;;;;7383350;19;20488;-79
2023/07/07 11:33:09;;;;;;;9.73;7.28;;;;;32.10;94527.00;;;;7384230;19;20127;-80
2023/07/07 11:36:14;;;;;;;10.82;7.47;;;;;31.70;94535.00;;;;7383733;19;20144;-79
2023/07/07 11:39:01;;;;;;;13.40;7.97;;;;;31.60;94536.00;;;;7383524;19;20224;-77
2023/07/07 11:41:52;;;;;;;10.05;7.35;;;;;31.50;94530.00;;;;7389240;19;20135;-76
2023/07/07 11:44:45;;;;;;;8.68;7.78;;;;;32.10;94520.00;;;;7389026;19;20154;-78
2023/07/07 11:47:29;;;;;;;10.98;8.20;;;;;32.00;94523.00;;;;7390168;19;20152;-77
2023/07/07 11:50:18;;;;;;;10.68;7.75;;;;;32.40;94520.00;;;;7388582;19;20688;-76
2023/07/07 11:53:00;;;;;;;9.73;7.20;;;;;32.10;94515.00;;;;7388965;19;20155;-77
2023/07/07 11:56:14;;;;;;;11.02;6.95;;;;;32.60;94517.00;;;;7390976;19;20124;-80
2023/07/07 11:58:52;;;;;;;9.07;7.22;;;;;32.40;94519.00;;;;7385914;19;20147;-79
2023/07/07 12:01:27;;;;;;;9.38;6.82;;;;;32.20;94515.00;;;;7391500;19;20172;-80
2023/07/07 12:04:26;;;;;;;9.18;6.82;;;;;32.40;94517.00;;;;7392161;19;20580;-77
2023/07/07 12:07:26;;;;;;;7.90;6.28;;;;;32.70;94516.00;;;;7389987;19;20128;-77
2023/07/07 12:10:13;;;;;;;10.50;7.65;;;;;33.10;94508.00;;;;7389079;19;20167;-79
2023/07/07 12:13:03;;;;;;;11.32;7.38;;;;;32.40;94507.00;;;;7388218;19;20136;-76
2023/07/07 12:16:01;;;;;;;10.07;6.97;;;;;32.80;94517.00;;;;7387330;19;20208;-78
2023/07/07 12:18:35;;;;;;;7.72;6.55;;;;;33.20;94514.00;;;;7386419;19;20125;-78
2023/07/07 12:21:33;;;;;;;8.35;6.60;;;;;33.00;94504.00;;;;7385343;19;20128;-76
2023/07/07 12:24:30;;;;;;;6.72;5.38;;;;;33.20;94505.00;;;;7382730;19;20148;-78
2023/07/07 12:27:20;;;;;;;8.80;6.07;;;;;31.70;94514.00;;;;7387053;19;20466;-77
2023/07/07 12:29:57;;;;;;;8.77;5.32;;;;;32.10;94508.00;;;;7387445;19;20640;-78
2023/07/07 12:32:32;;;;;;;10.93;5.90;;;;;32.40;94517.00;;;;7385792;19;20161;-79
2023/07/07 12:35:12;;;;;;;7.07;5.50;;;;;32.40;94503.00;;;;7387439;19;20124;-76
2023/07/07 12:37:47;;;;;;;7.47;5.75;;;;;32.90;94502.00;;;;7389733;19;20165;-80
2023/07/07 12:40:17;;;;;;;7.80;5.53;;;;;33.30;94503.00;;;;7389051;19;20131;-79
2023/07/07 12:43:05;;;;;;;7.03;5.35;;;;;33.30;94495.00;;;;7386897;19;20605;-75
2023/07/07 12:45:39;;;;;;;8.38;5.97;;;;;33.20;94502.00;;;;7386915;19;20699;-76
2023/07/07 12:48:19;;;;;;;6.72;5.65;;;;;33.40;94492.00;;;;7389816;19;20192;-78
2023/07/07 12:50:48;;;;;;;7.75;5.45;;;;;33.40;94489.00;;;;7387154;19;20606;-78
2023/07/07 12:53:39;;;;;;;10.45;5.15;;;;;33.10;94500.00;;;;7389766;19;20139;-78
2023/07/07 12:56:24;;;;;;;6.88;5.50;;;;;32.90;94496.00;;;;7386993;19;20168;-79
2023/07/07 12:59:01;;;;;;;8.80;5.25;;;;;33.10;94495.00;;;;7387358;19;21389;-77
2023/07/07 13:01:34;;;;;;;7.65;5.20;;;;;33.10;94486.00;;;;7390333;19;20219;-78
2023/07/07 13:04:14;;;;;;;9.52;5.55;;;;;32.90;94492.00;;;;7394306;19;20220;-77
2023/07/07 13:07:03;;;;;;;7.28;5.20;;;;;33.40;94482.00;;;;7385259;19;20172;-78
2023/07/07 13:09:50;;;;;;;5.82;5.13;;;;;33.30;94483.00;;;;7384967;19;20148;-77
2023/07/07 13:12:46;;;;;;;7.47;5.07;;;;;33.90;94478.00;;;;7382962;19;20201;-77
2023/07/07 13:15:25;;;;;;;9.40;5.72;;;;;33.10;94483.00;;;;7382926;19;20128;-76
2023/07/07 13:18:00;;;;;;;6.30;5.32;;;;;33.50;94479.00;;;;7382305;19;20140;-78
2023/07/07 13:20:29;;;;;;;5.88;5.28;;;;;33.80;94485.00;;;;7379263;19;20132;-79
2023/07/07 13:23:11;;;;;;;8.23;4.95;;;;;33.60;94482.00;;;;7375176;19;20521;-78
2023/07/07 13:25:48;;;;;;;8.00;5.53;;;;;32.80;94471.00;;;;7381359;19;20501;-78
2023/07/07 13:28:24;;;;;;;8.25;5.07;;;;;33.30;94470.00;;;;7384980;19;20889;-80